sensor_id;sensor_type;location;lat;lon;timestamp;P1;durP1;ratioP1;P2;durP2;ratioP2
11334;SDS011;5722;42.620;23.374;2024-02-28T00:01:29;23.23;;;15.13;;
11334;SDS011;5722;42.620;23.374;2024-02-28T00:07:12;27.00;;;15.30;;
11334;SDS011;5722;42.620;23.374;2024-02-28T00:09:56;20.23;;;14.50;;
11334;SDS011;5722;42.620;23.374;2024-02-28T00:56:21;34.13;;;19.13;;
11334;SDS011;5722;42.620;23.374;2024-02-28T01:27:05;29.40;;;19.80;;
11334;SDS011;5722;42.620;23.374;2024-02-28T01:32:59;32.90;;;20.03;;
11334;SDS011;5722;42.620;23.374;2024-02-28T01:38:33;30.07;;;19.67;;
11334;SDS011;5722;42.620;23.374;2024-02-28T01:47:27;29.80;;;18.87;;
11334;SDS011;5722;42.620;23.374;2024-02-28T02:43:46;23.37;;;15.97;;
11334;SDS011;5722;42.620;23.374;2024-02-28T02:52:12;24.20;;;14.97;;
11334;SDS011;5722;42.620;23.374;2024-02-28T02:57:46;22.20;;;15.50;;
11334;SDS011;5722;42.620;23.374;2024-02-28T03:00:23;23.67;;;16.00;;
11334;SDS011;5722;42.620;23.374;2024-02-28T03:08:52;20.80;;;14.17;;
11334;SDS011;5722;42.620;23.374;2024-02-28T03:14:56;17.50;;;12.23;;
11334;SDS011;5722;42.620;23.374;2024-02-28T03:45:23;23.73;;;16.03;;
11334;SDS011;5722;42.620;23.374;2024-02-28T03:54:15;20.53;;;14.70;;
11334;SDS011;5722;42.620;23.374;2024-02-28T04:06:23;21.63;;;15.63;;
11334;SDS011;5722;42.620;23.374;2024-02-28T04:33:38;16.80;;;12.47;;
11334;SDS011;5722;42.620;23.374;2024-02-28T04:36:17;18.13;;;12.50;;
11334;SDS011;5722;42.620;23.374;2024-02-28T04:39:03;16.00;;;12.53;;
11334;SDS011;5722;42.620;23.374;2024-02-28T04:47:44;21.57;;;12.53;;
11334;SDS011;5722;42.620;23.374;2024-02-28T05:19:20;20.97;;;14.70;;
11334;SDS011;5722;42.620;23.374;2024-02-28T05:27:16;17.37;;;13.10;;
11334;SDS011;5722;42.620;23.374;2024-02-28T05:29:57;21.43;;;13.57;;
11334;SDS011;5722;42.620;23.374;2024-02-28T05:32:33;16.93;;;12.40;;
11334;SDS011;5722;42.620;23.374;2024-02-28T05:35:07;19.93;;;13.13;;
11334;SDS011;5722;42.620;23.374;2024-02-28T05:40:44;16.97;;;12.40;;
11334;SDS011;5722;42.620;23.374;2024-02-28T05:49:20;18.20;;;12.77;;
11334;SDS011;5722;42.620;23.374;2024-02-28T05:51:54;21.13;;;12.10;;
11334;SDS011;5722;42.620;23.374;2024-02-28T05:54:22;17.83;;;11.67;;
11334;SDS011;5722;42.620;23.374;2024-02-28T05:56:56;17.73;;;11.90;;
11334;SDS011;5722;42.620;23.374;2024-02-28T06:02:33;24.63;;;12.63;;
11334;SDS011;5722;42.620;23.374;2024-02-28T06:08:05;14.73;;;11.60;;
11334;SDS011;5722;42.620;23.374;2024-02-28T06:10:33;27.90;;;13.33;;
11334;SDS011;5722;42.620;23.374;2024-02-28T06:13:01;26.57;;;14.17;;
11334;SDS011;5722;42.620;23.374;2024-02-28T06:15:29;20.17;;;14.20;;
11334;SDS011;5722;42.620;23.374;2024-02-28T06:17:57;23.20;;;16.73;;
11334;SDS011;5722;42.620;23.374;2024-02-28T06:20:31;22.07;;;14.30;;
11334;SDS011;5722;42.620;23.374;2024-02-28T06:23:10;23.13;;;15.33;;
11334;SDS011;5722;42.620;23.374;2024-02-28T06:25:38;23.57;;;15.70;;
11334;SDS011;5722;42.620;23.374;2024-02-28T06:28:08;22.77;;;15.20;;
11334;SDS011;5722;42.620;23.374;2024-02-28T06:30:39;21.17;;;13.97;;
11334;SDS011;5722;42.620;23.374;2024-02-28T06:33:06;20.13;;;13.70;;
11334;SDS011;5722;42.620;23.374;2024-02-28T06:35:34;17.00;;;12.80;;
11334;SDS011;5722;42.620;23.374;2024-02-28T06:38:01;17.00;;;12.83;;
11334;SDS011;5722;42.620;23.374;2024-02-28T06:40:30;18.77;;;12.67;;
11334;SDS011;5722;42.620;23.374;2024-02-28T06:42:57;25.57;;;13.57;;
11334;SDS011;5722;42.620;23.374;2024-02-28T06:45:24;21.77;;;14.53;;
11334;SDS011;5722;42.620;23.374;2024-02-28T06:47:50;22.33;;;14.97;;
11334;SDS011;5722;42.620;23.374;2024-02-28T06:50:18;22.50;;;15.70;;
11334;SDS011;5722;42.620;23.374;2024-02-28T06:52:45;21.97;;;15.10;;
11334;SDS011;5722;42.620;23.374;2024-02-28T06:55:12;24.77;;;15.57;;
11334;SDS011;5722;42.620;23.374;2024-02-28T06:57:41;20.60;;;14.93;;
11334;SDS011;5722;42.620;23.374;2024-02-28T07:00:08;31.40;;;16.67;;
11334;SDS011;5722;42.620;23.374;2024-02-28T07:02:37;32.83;;;16.93;;
11334;SDS011;5722;42.620;23.374;2024-02-28T07:05:10;24.27;;;15.77;;
11334;SDS011;5722;42.620;23.374;2024-02-28T07:07:45;22.17;;;16.17;;
11334;SDS011;5722;42.620;23.374;2024-02-28T07:10:12;25.00;;;16.00;;
11334;SDS011;5722;42.620;23.374;2024-02-28T07:12:43;25.70;;;15.83;;
11334;SDS011;5722;42.620;23.374;2024-02-28T07:15:09;25.53;;;15.80;;
11334;SDS011;5722;42.620;23.374;2024-02-28T07:17:39;21.37;;;15.83;;
11334;SDS011;5722;42.620;23.374;2024-02-28T07:20:06;21.83;;;15.33;;
11334;SDS011;5722;42.620;23.374;2024-02-28T07:22:35;24.00;;;16.13;;
11334;SDS011;5722;42.620;23.374;2024-02-28T07:25:03;24.03;;;16.40;;
11334;SDS011;5722;42.620;23.374;2024-02-28T07:27:35;27.17;;;16.73;;
11334;SDS011;5722;42.620;23.374;2024-02-28T07:30:07;23.73;;;16.57;;
11334;SDS011;5722;42.620;23.374;2024-02-28T07:32:35;22.90;;;15.97;;
11334;SDS011;5722;42.620;23.374;2024-02-28T07:35:03;21.47;;;15.73;;
11334;SDS011;5722;42.620;23.374;2024-02-28T07:37:30;19.93;;;14.53;;
11334;SDS011;5722;42.620;23.374;2024-02-28T07:40:04;23.40;;;15.23;;
11334;SDS011;5722;42.620;23.374;2024-02-28T07:42:32;19.93;;;15.13;;
11334;SDS011;5722;42.620;23.374;2024-02-28T07:45:01;22.00;;;14.90;;
11334;SDS011;5722;42.620;23.374;2024-02-28T07:47:35;21.73;;;15.33;;
11334;SDS011;5722;42.620;23.374;2024-02-28T07:50:03;22.40;;;16.27;;
11334;SDS011;5722;42.620;23.374;2024-02-28T07:52:34;23.00;;;14.50;;
11334;SDS011;5722;42.620;23.374;2024-02-28T07:55:04;20.87;;;14.67;;
11334;SDS011;5722;42.620;23.374;2024-02-28T07:57:31;21.27;;;14.37;;
11334;SDS011;5722;42.620;23.374;2024-02-28T08:00:01;23.43;;;15.07;;
11334;SDS011;5722;42.620;23.374;2024-02-28T08:02:29;20.27;;;14.50;;
11334;SDS011;5722;42.620;23.374;2024-02-28T08:07:38;24.93;;;15.13;;
11334;SDS011;5722;42.620;23.374;2024-02-28T08:10:05;24.10;;;15.00;;
11334;SDS011;5722;42.620;23.374;2024-02-28T08:12:37;23.37;;;14.93;;
11334;SDS011;5722;42.620;23.374;2024-02-28T08:15:08;20.23;;;14.37;;
11334;SDS011;5722;42.620;23.374;2024-02-28T08:17:36;22.70;;;15.60;;
11334;SDS011;5722;42.620;23.374;2024-02-28T08:20:04;21.60;;;13.97;;
11334;SDS011;5722;42.620;23.374;2024-02-28T08:22:33;18.50;;;13.37;;
11334;SDS011;5722;42.620;23.374;2024-02-28T08:25:02;18.70;;;13.87;;
11334;SDS011;5722;42.620;23.374;2024-02-28T08:27:29;22.40;;;14.40;;
11334;SDS011;5722;42.620;23.374;2024-02-28T08:29:59;18.33;;;13.73;;
11334;SDS011;5722;42.620;23.374;2024-02-28T08:32:26;18.80;;;14.33;;
11334;SDS011;5722;42.620;23.374;2024-02-28T08:34:53;22.13;;;15.03;;
11334;SDS011;5722;42.620;23.374;2024-02-28T08:37:23;22.93;;;14.67;;
11334;SDS011;5722;42.620;23.374;2024-02-28T08:39:49;17.77;;;13.60;;
11334;SDS011;5722;42.620;23.374;2024-02-28T08:42:20;20.27;;;13.50;;
11334;SDS011;5722;42.620;23.374;2024-02-28T08:44:47;18.33;;;13.53;;
11334;SDS011;5722;42.620;23.374;2024-02-28T08:47:14;17.77;;;13.40;;
11334;SDS011;5722;42.620;23.374;2024-02-28T08:49:41;19.17;;;13.60;;
11334;SDS011;5722;42.620;23.374;2024-02-28T08:52:08;18.13;;;13.73;;
11334;SDS011;5722;42.620;23.374;2024-02-28T08:54:34;18.63;;;13.37;;
11334;SDS011;5722;42.620;23.374;2024-02-28T08:57:07;17.27;;;13.70;;
11334;SDS011;5722;42.620;23.374;2024-02-28T08:59:39;20.17;;;13.30;;
11334;SDS011;5722;42.620;23.374;2024-02-28T09:02:06;20.80;;;14.07;;
11334;SDS011;5722;42.620;23.374;2024-02-28T09:04:33;18.77;;;13.40;;
11334;SDS011;5722;42.620;23.374;2024-02-28T09:07:01;15.53;;;12.97;;
11334;SDS011;5722;42.620;23.374;2024-02-28T09:09:31;19.27;;;13.60;;
11334;SDS011;5722;42.620;23.374;2024-02-28T09:12:03;19.00;;;13.57;;
11334;SDS011;5722;42.620;23.374;2024-02-28T09:14:30;18.80;;;13.13;;
11334;SDS011;5722;42.620;23.374;2024-02-28T09:16:59;16.10;;;12.93;;
11334;SDS011;5722;42.620;23.374;2024-02-28T09:19:28;20.33;;;12.87;;
11334;SDS011;5722;42.620;23.374;2024-02-28T09:21:58;22.63;;;13.47;;
11334;SDS011;5722;42.620;23.374;2024-02-28T09:24:27;21.50;;;13.47;;
11334;SDS011;5722;42.620;23.374;2024-02-28T09:26:54;20.23;;;13.43;;
11334;SDS011;5722;42.620;23.374;2024-02-28T09:29:20;24.40;;;14.17;;
11334;SDS011;5722;42.620;23.374;2024-02-28T09:31:47;18.80;;;13.33;;
11334;SDS011;5722;42.620;23.374;2024-02-28T09:34:16;21.83;;;13.93;;
11334;SDS011;5722;42.620;23.374;2024-02-28T09:36:43;18.50;;;12.97;;
11334;SDS011;5722;42.620;23.374;2024-02-28T09:39:10;19.40;;;12.90;;
11334;SDS011;5722;42.620;23.374;2024-02-28T09:41:38;22.33;;;12.77;;
11334;SDS011;5722;42.620;23.374;2024-02-28T09:44:05;19.93;;;13.07;;
11334;SDS011;5722;42.620;23.374;2024-02-28T09:46:32;19.80;;;13.10;;
11334;SDS011;5722;42.620;23.374;2024-02-28T09:48:59;19.93;;;13.07;;
11334;SDS011;5722;42.620;23.374;2024-02-28T09:51:31;21.83;;;13.43;;
11334;SDS011;5722;42.620;23.374;2024-02-28T09:53:59;17.77;;;12.83;;
11334;SDS011;5722;42.620;23.374;2024-02-28T09:56:33;15.30;;;11.47;;
11334;SDS011;5722;42.620;23.374;2024-02-28T09:59:03;14.70;;;11.70;;
11334;SDS011;5722;42.620;23.374;2024-02-28T10:01:31;18.20;;;11.80;;
11334;SDS011;5722;42.620;23.374;2024-02-28T10:04:01;22.13;;;11.93;;
11334;SDS011;5722;42.620;23.374;2024-02-28T10:06:31;17.50;;;12.10;;
11334;SDS011;5722;42.620;23.374;2024-02-28T10:08:59;20.67;;;12.03;;
11334;SDS011;5722;42.620;23.374;2024-02-28T10:11:26;20.80;;;11.57;;
11334;SDS011;5722;42.620;23.374;2024-02-28T10:13:52;15.35;;;11.10;;
11334;SDS011;5722;42.620;23.374;2024-02-28T10:16:20;14.10;;;11.15;;
11334;SDS011;5722;42.620;23.374;2024-02-28T10:18:53;19.98;;;11.35;;
11334;SDS011;5722;42.620;23.374;2024-02-28T10:21:40;15.27;;;10.70;;
11334;SDS011;5722;42.620;23.374;2024-02-28T10:24:10;77.90;;;14.13;;
11334;SDS011;5722;42.620;23.374;2024-02-28T10:26:43;14.25;;;11.25;;
11334;SDS011;5722;42.620;23.374;2024-02-28T10:29:11;16.50;;;11.30;;
11334;SDS011;5722;42.620;23.374;2024-02-28T10:31:38;16.70;;;10.95;;
11334;SDS011;5722;42.620;23.374;2024-02-28T10:34:12;15.95;;;10.80;;
11334;SDS011;5722;42.620;23.374;2024-02-28T10:36:40;14.38;;;9.95;;
11334;SDS011;5722;42.620;23.374;2024-02-28T10:39:11;13.77;;;10.45;;
11334;SDS011;5722;42.620;23.374;2024-02-28T10:41:38;12.68;;;9.80;;
11334;SDS011;5722;42.620;23.374;2024-02-28T10:44:05;14.55;;;9.90;;
11334;SDS011;5722;42.620;23.374;2024-02-28T10:46:34;13.68;;;8.85;;
11334;SDS011;5722;42.620;23.374;2024-02-28T10:49:04;13.93;;;8.60;;
11334;SDS011;5722;42.620;23.374;2024-02-28T10:51:38;14.50;;;9.30;;
11334;SDS011;5722;42.620;23.374;2024-02-28T10:54:09;15.45;;;9.27;;
11334;SDS011;5722;42.620;23.374;2024-02-28T10:56:38;11.90;;;9.20;;
11334;SDS011;5722;42.620;23.374;2024-02-28T10:59:10;23.98;;;7.65;;
11334;SDS011;5722;42.620;23.374;2024-02-28T11:01:40;10.38;;;7.82;;
11334;SDS011;5722;42.620;23.374;2024-02-28T11:04:08;12.48;;;7.80;;
11334;SDS011;5722;42.620;23.374;2024-02-28T11:06:46;12.00;;;7.93;;
11334;SDS011;5722;42.620;23.374;2024-02-28T11:09:18;12.73;;;7.63;;
11334;SDS011;5722;42.620;23.374;2024-02-28T11:11:50;13.82;;;6.80;;
11334;SDS011;5722;42.620;23.374;2024-02-28T11:14:17;8.35;;;6.82;;
11334;SDS011;5722;42.620;23.374;2024-02-28T11:16:46;9.95;;;6.75;;
11334;SDS011;5722;42.620;23.374;2024-02-28T11:19:20;10.63;;;6.97;;
11334;SDS011;5722;42.620;23.374;2024-02-28T11:21:58;9.57;;;6.82;;
11334;SDS011;5722;42.620;23.374;2024-02-28T11:24:32;9.60;;;6.78;;
11334;SDS011;5722;42.620;23.374;2024-02-28T11:27:02;12.95;;;6.55;;
11334;SDS011;5722;42.620;23.374;2024-02-28T11:29:31;13.30;;;6.60;;
11334;SDS011;5722;42.620;23.374;2024-02-28T11:32:00;8.70;;;6.97;;
11334;SDS011;5722;42.620;23.374;2024-02-28T11:34:36;12.02;;;7.80;;
11334;SDS011;5722;42.620;23.374;2024-02-28T11:37:05;10.57;;;8.02;;
11334;SDS011;5722;42.620;23.374;2024-02-28T11:39:34;10.30;;;6.90;;
11334;SDS011;5722;42.620;23.374;2024-02-28T11:45:01;14.88;;;7.13;;
11334;SDS011;5722;42.620;23.374;2024-02-28T11:47:31;11.15;;;7.45;;
11334;SDS011;5722;42.620;23.374;2024-02-28T11:50:07;11.73;;;8.07;;
11334;SDS011;5722;42.620;23.374;2024-02-28T11:52:37;11.10;;;8.60;;
11334;SDS011;5722;42.620;23.374;2024-02-28T11:55:07;12.88;;;8.35;;
11334;SDS011;5722;42.620;23.374;2024-02-28T11:57:37;13.60;;;8.05;;
11334;SDS011;5722;42.620;23.374;2024-02-28T12:00:08;11.68;;;8.75;;
11334;SDS011;5722;42.620;23.374;2024-02-28T12:02:38;12.07;;;7.72;;
11334;SDS011;5722;42.620;23.374;2024-02-28T12:05:08;11.68;;;7.88;;
11334;SDS011;5722;42.620;23.374;2024-02-28T12:07:38;11.27;;;7.93;;
11334;SDS011;5722;42.620;23.374;2024-02-28T12:10:06;10.07;;;7.32;;
11334;SDS011;5722;42.620;23.374;2024-02-28T12:12:39;14.48;;;8.00;;
11334;SDS011;5722;42.620;23.374;2024-02-28T12:15:08;13.60;;;7.78;;
11334;SDS011;5722;42.620;23.374;2024-02-28T12:17:36;13.23;;;7.63;;
11334;SDS011;5722;42.620;23.374;2024-02-28T12:20:03;10.68;;;7.53;;
11334;SDS011;5722;42.620;23.374;2024-02-28T12:22:31;13.95;;;8.10;;
11334;SDS011;5722;42.620;23.374;2024-02-28T12:24:58;11.43;;;8.07;;
11334;SDS011;5722;42.620;23.374;2024-02-28T12:27:29;16.75;;;9.13;;
11334;SDS011;5722;42.620;23.374;2024-02-28T12:29:58;13.50;;;9.73;;
11334;SDS011;5722;42.620;23.374;2024-02-28T12:32:27;14.13;;;9.48;;
11334;SDS011;5722;42.620;23.374;2024-02-28T12:34:53;18.42;;;9.80;;
11334;SDS011;5722;42.620;23.374;2024-02-28T12:37:21;14.32;;;9.30;;
11334;SDS011;5722;42.620;23.374;2024-02-28T12:39:48;10.82;;;8.77;;
11334;SDS011;5722;42.620;23.374;2024-02-28T12:42:13;11.25;;;8.45;;
11334;SDS011;5722;42.620;23.374;2024-02-28T12:44:41;11.25;;;9.07;;
11334;SDS011;5722;42.620;23.374;2024-02-28T12:47:11;12.00;;;9.05;;
11334;SDS011;5722;42.620;23.374;2024-02-28T12:49:40;15.63;;;9.13;;
11334;SDS011;5722;42.620;23.374;2024-02-28T12:52:07;10.82;;;8.43;;
11334;SDS011;5722;42.620;23.374;2024-02-28T12:54:34;12.75;;;7.97;;
11334;SDS011;5722;42.620;23.374;2024-02-28T12:57:00;11.82;;;8.60;;
11334;SDS011;5722;42.620;23.374;2024-02-28T12:59:31;16.85;;;8.38;;
11334;SDS011;5722;42.620;23.374;2024-02-28T13:01:58;23.33;;;8.70;;
11334;SDS011;5722;42.620;23.374;2024-02-28T13:04:24;14.25;;;7.82;;
11334;SDS011;5722;42.620;23.374;2024-02-28T13:06:54;11.98;;;8.20;;
11334;SDS011;5722;42.620;23.374;2024-02-28T13:09:21;11.25;;;8.25;;
11334;SDS011;5722;42.620;23.374;2024-02-28T13:11:48;13.68;;;8.40;;
11334;SDS011;5722;42.620;23.374;2024-02-28T13:14:16;17.48;;;9.48;;
11334;SDS011;5722;42.620;23.374;2024-02-28T13:16:43;13.43;;;8.68;;
11334;SDS011;5722;42.620;23.374;2024-02-28T13:19:11;14.60;;;8.52;;
11334;SDS011;5722;42.620;23.374;2024-02-28T13:21:39;20.58;;;8.77;;
11334;SDS011;5722;42.620;23.374;2024-02-28T13:24:07;15.20;;;7.95;;
11334;SDS011;5722;42.620;23.374;2024-02-28T13:26:34;10.57;;;7.65;;
11334;SDS011;5722;42.620;23.374;2024-02-28T13:29:00;12.15;;;8.68;;
11334;SDS011;5722;42.620;23.374;2024-02-28T13:31:27;16.60;;;8.45;;
11334;SDS011;5722;42.620;23.374;2024-02-28T13:33:55;14.18;;;8.00;;
11334;SDS011;5722;42.620;23.374;2024-02-28T13:36:22;20.23;;;8.27;;
11334;SDS011;5722;42.620;23.374;2024-02-28T13:38:49;10.88;;;7.60;;
11334;SDS011;5722;42.620;23.374;2024-02-28T13:41:20;11.02;;;8.10;;
11334;SDS011;5722;42.620;23.374;2024-02-28T13:43:47;12.63;;;8.45;;
11334;SDS011;5722;42.620;23.374;2024-02-28T13:46:13;13.48;;;8.23;;
11334;SDS011;5722;42.620;23.374;2024-02-28T13:48:40;14.45;;;7.93;;
11334;SDS011;5722;42.620;23.374;2024-02-28T13:51:09;15.50;;;8.13;;
11334;SDS011;5722;42.620;23.374;2024-02-28T13:53:36;18.50;;;8.13;;
11334;SDS011;5722;42.620;23.374;2024-02-28T13:56:03;15.48;;;8.93;;
11334;SDS011;5722;42.620;23.374;2024-02-28T13:58:33;14.98;;;9.95;;
11334;SDS011;5722;42.620;23.374;2024-02-28T14:01:00;20.75;;;9.25;;
11334;SDS011;5722;42.620;23.374;2024-02-28T14:03:27;13.30;;;7.95;;
11334;SDS011;5722;42.620;23.374;2024-02-28T14:05:54;14.52;;;8.73;;
11334;SDS011;5722;42.620;23.374;2024-02-28T14:08:22;15.88;;;8.20;;
11334;SDS011;5722;42.620;23.374;2024-02-28T14:10:48;14.45;;;8.75;;
11334;SDS011;5722;42.620;23.374;2024-02-28T14:13:18;14.80;;;7.85;;
11334;SDS011;5722;42.620;23.374;2024-02-28T14:15:47;19.10;;;9.13;;
11334;SDS011;5722;42.620;23.374;2024-02-28T14:18:16;11.43;;;7.72;;
11334;SDS011;5722;42.620;23.374;2024-02-28T14:20:42;14.65;;;8.98;;
11334;SDS011;5722;42.620;23.374;2024-02-28T14:23:10;15.70;;;8.65;;
11334;SDS011;5722;42.620;23.374;2024-02-28T14:25:36;18.98;;;9.20;;
11334;SDS011;5722;42.620;23.374;2024-02-28T14:28:03;15.60;;;9.57;;
11334;SDS011;5722;42.620;23.374;2024-02-28T14:30:30;19.33;;;8.75;;
11334;SDS011;5722;42.620;23.374;2024-02-28T14:32:59;15.70;;;8.38;;
11334;SDS011;5722;42.620;23.374;2024-02-28T14:35:25;46.67;;;10.95;;
11334;SDS011;5722;42.620;23.374;2024-02-28T14:37:52;37.70;;;9.68;;
11334;SDS011;5722;42.620;23.374;2024-02-28T14:40:19;21.40;;;9.68;;
11334;SDS011;5722;42.620;23.374;2024-02-28T14:42:46;20.25;;;9.07;;
11334;SDS011;5722;42.620;23.374;2024-02-28T14:45:13;12.27;;;7.85;;
11334;SDS011;5722;42.620;23.374;2024-02-28T14:47:41;14.70;;;8.40;;
11334;SDS011;5722;42.620;23.374;2024-02-28T14:50:10;18.63;;;9.27;;
11334;SDS011;5722;42.620;23.374;2024-02-28T14:52:37;22.52;;;9.60;;
11334;SDS011;5722;42.620;23.374;2024-02-28T14:55:06;15.98;;;8.15;;
11334;SDS011;5722;42.620;23.374;2024-02-28T14:57:33;17.98;;;8.13;;
11334;SDS011;5722;42.620;23.374;2024-02-28T15:00:00;35.40;;;8.82;;
11334;SDS011;5722;42.620;23.374;2024-02-28T15:02:33;29.83;;;8.18;;
11334;SDS011;5722;42.620;23.374;2024-02-28T15:05:00;30.30;;;8.23;;
11334;SDS011;5722;42.620;23.374;2024-02-28T15:07:33;24.33;;;9.23;;
11334;SDS011;5722;42.620;23.374;2024-02-28T15:10:01;37.33;;;9.85;;
11334;SDS011;5722;42.620;23.374;2024-02-28T15:12:29;13.20;;;7.72;;
11334;SDS011;5722;42.620;23.374;2024-02-28T15:14:58;29.35;;;8.52;;
11334;SDS011;5722;42.620;23.374;2024-02-28T15:17:25;17.95;;;8.57;;
11334;SDS011;5722;42.620;23.374;2024-02-28T15:19:51;22.10;;;8.40;;
11334;SDS011;5722;42.620;23.374;2024-02-28T15:22:19;14.88;;;8.50;;
11334;SDS011;5722;42.620;23.374;2024-02-28T15:24:47;18.17;;;8.98;;
11334;SDS011;5722;42.620;23.374;2024-02-28T15:27:15;22.00;;;11.52;;
11334;SDS011;5722;42.620;23.374;2024-02-28T15:29:42;15.90;;;9.48;;
11334;SDS011;5722;42.620;23.374;2024-02-28T15:32:09;16.10;;;9.07;;
11334;SDS011;5722;42.620;23.374;2024-02-28T15:34:36;18.33;;;9.30;;
11334;SDS011;5722;42.620;23.374;2024-02-28T15:37:03;21.20;;;9.82;;
11334;SDS011;5722;42.620;23.374;2024-02-28T15:39:30;12.38;;;8.52;;
11334;SDS011;5722;42.620;23.374;2024-02-28T15:41:58;13.95;;;8.00;;
11334;SDS011;5722;42.620;23.374;2024-02-28T15:44:26;15.20;;;9.77;;
11334;SDS011;5722;42.620;23.374;2024-02-28T15:46:53;21.35;;;10.95;;
11334;SDS011;5722;42.620;23.374;2024-02-28T15:49:20;26.02;;;10.52;;
11334;SDS011;5722;42.620;23.374;2024-02-28T15:51:48;11.48;;;8.15;;
11334;SDS011;5722;42.620;23.374;2024-02-28T15:54:15;13.10;;;6.93;;
11334;SDS011;5722;42.620;23.374;2024-02-28T15:56:42;13.35;;;7.13;;
11334;SDS011;5722;42.620;23.374;2024-02-28T15:59:11;10.65;;;6.70;;
11334;SDS011;5722;42.620;23.374;2024-02-28T16:01:47;35.20;;;8.17;;
11334;SDS011;5722;42.620;23.374;2024-02-28T16:04:13;15.13;;;6.40;;
11334;SDS011;5722;42.620;23.374;2024-02-28T16:06:40;10.38;;;7.20;;
11334;SDS011;5722;42.620;23.374;2024-02-28T16:09:07;15.18;;;6.60;;
11334;SDS011;5722;42.620;23.374;2024-02-28T16:11:35;31.87;;;7.30;;
11334;SDS011;5722;42.620;23.374;2024-02-28T16:14:02;14.07;;;6.83;;
11334;SDS011;5722;42.620;23.374;2024-02-28T16:16:32;18.60;;;7.43;;
11334;SDS011;5722;42.620;23.374;2024-02-28T16:19:01;18.50;;;7.15;;
11334;SDS011;5722;42.620;23.374;2024-02-28T16:21:28;11.13;;;7.07;;
11334;SDS011;5722;42.620;23.374;2024-02-28T16:23:55;16.60;;;7.67;;
11334;SDS011;5722;42.620;23.374;2024-02-28T16:26:21;26.83;;;7.80;;
11334;SDS011;5722;42.620;23.374;2024-02-28T16:28:51;11.32;;;7.22;;
11334;SDS011;5722;42.620;23.374;2024-02-28T16:31:19;16.33;;;7.80;;
11334;SDS011;5722;42.620;23.374;2024-02-28T16:33:47;16.27;;;7.83;;
11334;SDS011;5722;42.620;23.374;2024-02-28T16:36:14;14.60;;;8.33;;
11334;SDS011;5722;42.620;23.374;2024-02-28T16:38:42;18.90;;;11.17;;
11334;SDS011;5722;42.620;23.374;2024-02-28T16:41:09;19.37;;;12.07;;
11334;SDS011;5722;42.620;23.374;2024-02-28T16:43:36;13.47;;;8.37;;
11334;SDS011;5722;42.620;23.374;2024-02-28T16:46:03;12.70;;;8.50;;
11334;SDS011;5722;42.620;23.374;2024-02-28T16:48:33;13.20;;;8.40;;
11334;SDS011;5722;42.620;23.374;2024-02-28T16:51:02;12.03;;;7.93;;
11334;SDS011;5722;42.620;23.374;2024-02-28T16:53:29;22.03;;;7.70;;
11334;SDS011;5722;42.620;23.374;2024-02-28T16:55:58;9.47;;;6.63;;
11334;SDS011;5722;42.620;23.374;2024-02-28T16:58:25;10.13;;;7.33;;
11334;SDS011;5722;42.620;23.374;2024-02-28T17:00:51;9.20;;;6.27;;
11334;SDS011;5722;42.620;23.374;2024-02-28T17:03:18;12.57;;;6.20;;
11334;SDS011;5722;42.620;23.374;2024-02-28T17:05:46;10.10;;;6.63;;
11334;SDS011;5722;42.620;23.374;2024-02-28T17:08:15;11.07;;;6.27;;
11334;SDS011;5722;42.620;23.374;2024-02-28T17:10:47;11.27;;;6.50;;
11334;SDS011;5722;42.620;23.374;2024-02-28T17:16:41;11.60;;;6.47;;
11334;SDS011;5722;42.620;23.374;2024-02-28T17:22:29;8.37;;;4.90;;
11334;SDS011;5722;42.620;23.374;2024-02-28T17:37:11;13.90;;;7.03;;
11334;SDS011;5722;42.620;23.374;2024-02-28T17:39:58;9.33;;;5.77;;
11334;SDS011;5722;42.620;23.374;2024-02-28T17:42:40;7.93;;;5.50;;
11334;SDS011;5722;42.620;23.374;2024-02-28T17:45:54;11.83;;;5.73;;
11334;SDS011;5722;42.620;23.374;2024-02-28T17:48:17;9.23;;;5.63;;
11334;SDS011;5722;42.620;23.374;2024-02-28T17:53:37;10.10;;;5.10;;
11334;SDS011;5722;42.620;23.374;2024-02-28T17:57:34;6.93;;;4.73;;
11334;SDS011;5722;42.620;23.374;2024-02-28T18:03:04;7.30;;;5.17;;
11334;SDS011;5722;42.620;23.374;2024-02-28T18:06:07;11.57;;;6.47;;
11334;SDS011;5722;42.620;23.374;2024-02-28T18:08:36;7.53;;;5.97;;
11334;SDS011;5722;42.620;23.374;2024-02-28T18:11:32;9.17;;;6.50;;
11334;SDS011;5722;42.620;23.374;2024-02-28T18:14:50;8.17;;;6.03;;
11334;SDS011;5722;42.620;23.374;2024-02-28T18:17:27;9.53;;;6.03;;
11334;SDS011;5722;42.620;23.374;2024-02-28T18:20:48;9.83;;;6.47;;
11334;SDS011;5722;42.620;23.374;2024-02-28T18:24:04;9.93;;;5.87;;
11334;SDS011;5722;42.620;23.374;2024-02-28T18:26:45;8.30;;;5.20;;
11334;SDS011;5722;42.620;23.374;2024-02-28T18:30:32;9.73;;;6.03;;
11334;SDS011;5722;42.620;23.374;2024-02-28T18:32:59;9.67;;;6.30;;
11334;SDS011;5722;42.620;23.374;2024-02-28T18:36:16;9.40;;;6.23;;
11334;SDS011;5722;42.620;23.374;2024-02-28T18:39:20;7.40;;;5.00;;
11334;SDS011;5722;42.620;23.374;2024-02-28T18:45:10;7.33;;;4.93;;
11334;SDS011;5722;42.620;23.374;2024-02-28T18:47:50;9.47;;;4.73;;
11334;SDS011;5722;42.620;23.374;2024-02-28T18:56:45;13.70;;;6.27;;
11334;SDS011;5722;42.620;23.374;2024-02-28T18:59:58;10.30;;;6.10;;
11334;SDS011;5722;42.620;23.374;2024-02-28T19:03:02;8.27;;;5.73;;
11334;SDS011;5722;42.620;23.374;2024-02-28T19:06:26;11.27;;;6.10;;
11334;SDS011;5722;42.620;23.374;2024-02-28T19:14:45;8.60;;;5.40;;
11334;SDS011;5722;42.620;23.374;2024-02-28T19:17:53;6.33;;;4.80;;
11334;SDS011;5722;42.620;23.374;2024-02-28T19:30:06;10.50;;;5.60;;
11334;SDS011;5722;42.620;23.374;2024-02-28T19:42:24;9.80;;;5.80;;
11334;SDS011;5722;42.620;23.374;2024-02-28T20:00:00;9.40;;;6.10;;
11334;SDS011;5722;42.620;23.374;2024-02-28T20:06:05;9.40;;;7.33;;
11334;SDS011;5722;42.620;23.374;2024-02-28T20:08:57;12.13;;;7.30;;
11334;SDS011;5722;42.620;23.374;2024-02-28T20:11:41;10.73;;;6.97;;
11334;SDS011;5722;42.620;23.374;2024-02-28T20:14:17;12.47;;;7.87;;
11334;SDS011;5722;42.620;23.374;2024-02-28T20:23:34;11.43;;;8.03;;
11334;SDS011;5722;42.620;23.374;2024-02-28T20:26:26;12.90;;;7.70;;
11334;SDS011;5722;42.620;23.374;2024-02-28T20:29:13;17.93;;;7.57;;
11334;SDS011;5722;42.620;23.374;2024-02-28T20:33:12;13.07;;;8.37;;
11334;SDS011;5722;42.620;23.374;2024-02-28T20:38:25;18.23;;;9.50;;
11334;SDS011;5722;42.620;23.374;2024-02-28T20:41:39;16.17;;;8.47;;
11334;SDS011;5722;42.620;23.374;2024-02-28T20:44:46;15.73;;;10.60;;
11334;SDS011;5722;42.620;23.374;2024-02-28T20:50:12;15.57;;;10.27;;
11334;SDS011;5722;42.620;23.374;2024-02-28T20:52:13;17.33;;;11.20;;
11334;SDS011;5722;42.620;23.374;2024-02-28T20:53:53;14.77;;;10.83;;
11334;SDS011;5722;42.620;23.374;2024-02-28T21:02:46;17.57;;;11.93;;
11334;SDS011;5722;42.620;23.374;2024-02-28T21:12:01;18.17;;;11.93;;
11334;SDS011;5722;42.620;23.374;2024-02-28T21:15:30;20.70;;;11.10;;
11334;SDS011;5722;42.620;23.374;2024-02-28T21:18:01;19.80;;;11.20;;
11334;SDS011;5722;42.620;23.374;2024-02-28T21:20:43;21.67;;;12.07;;
11334;SDS011;5722;42.620;23.374;2024-02-28T21:23:35;18.27;;;11.23;;
11334;SDS011;5722;42.620;23.374;2024-02-28T21:26:15;20.67;;;12.30;;
11334;SDS011;5722;42.620;23.374;2024-02-28T21:28:42;17.30;;;11.87;;
11334;SDS011;5722;42.620;23.374;2024-02-28T21:31:09;20.80;;;12.13;;
11334;SDS011;5722;42.620;23.374;2024-02-28T21:33:38;15.77;;;11.50;;